createdAt,value
2023-04-12T00:00:11.619Z,5.73
2023-04-12T00:02:40.005Z,6.67
2023-04-12T00:05:09.700Z,6.20
2023-04-12T00:07:38.460Z,6.30
2023-04-12T00:10:08.271Z,6.57
2023-04-12T00:12:35.456Z,6.73
2023-04-12T00:15:02.402Z,6.47
2023-04-12T00:17:29.575Z,6.97
2023-04-12T00:19:57.608Z,6.30
2023-04-12T00:22:26.631Z,6.20
2023-04-12T00:24:53.639Z,6.57
2023-04-12T00:27:20.621Z,7.17
2023-04-12T00:29:47.525Z,6.43
2023-04-12T00:32:14.517Z,6.53
2023-04-12T00:34:41.414Z,6.83
2023-04-12T00:37:09.144Z,6.80
2023-04-12T00:39:36.223Z,6.50
2023-04-12T00:42:06.610Z,6.80
2023-04-12T00:44:34.149Z,6.37
2023-04-12T00:47:03.905Z,6.00
2023-04-12T00:49:31.590Z,5.97
2023-04-12T00:52:04.620Z,6.73
2023-04-12T00:54:33.453Z,6.80
2023-04-12T00:57:04.209Z,6.07
2023-04-12T00:59:31.417Z,6.87
2023-04-12T01:01:59.955Z,6.07
2023-04-12T01:04:27.742Z,7.07
2023-04-12T01:07:18.883Z,6.33
2023-04-12T01:10:23.855Z,6.70
2023-04-12T01:13:18.823Z,6.50
2023-04-12T01:16:04.053Z,6.53
2023-04-12T01:18:40.896Z,7.03
2023-04-12T01:21:16.604Z,6.87
2023-04-12T01:24:07.652Z,6.47
2023-04-12T01:26:41.840Z,7.03
2023-04-12T01:29:17.150Z,7.83
2023-04-12T01:32:03.209Z,7.33
2023-04-12T01:34:33.245Z,7.70
2023-04-12T01:37:03.115Z,6.87
2023-04-12T01:39:32.482Z,7.57
2023-04-12T01:41:59.462Z,6.73
2023-04-12T01:44:26.593Z,7.07
2023-04-12T01:46:53.863Z,7.07
2023-04-12T01:49:24.235Z,6.73
2023-04-12T01:52:09.634Z,7.57
2023-04-12T01:54:39.240Z,7.90
2023-04-12T01:57:08.619Z,6.63
2023-04-12T01:59:43.501Z,7.07
2023-04-12T02:02:12.051Z,7.00
2023-04-12T02:04:40.090Z,7.20
2023-04-12T02:07:07.070Z,7.17
2023-04-12T02:09:38.567Z,6.73
2023-04-12T02:12:10.237Z,7.50
2023-04-12T02:14:37.261Z,7.10
2023-04-12T02:17:05.169Z,7.17
2023-04-12T02:19:32.859Z,7.33
2023-04-12T02:21:59.813Z,6.97
2023-04-12T02:24:27.443Z,7.70
2023-04-12T02:26:55.192Z,6.43
2023-04-12T02:29:22.176Z,7.30
2023-04-12T02:31:49.159Z,7.53
2023-04-12T02:34:18.289Z,7.87
2023-04-12T02:36:49.446Z,6.90
2023-04-12T02:39:22.391Z,7.20
2023-04-12T02:41:49.567Z,7.87
2023-04-12T02:44:16.484Z,7.47
2023-04-12T02:46:43.528Z,7.47
2023-04-12T02:49:10.466Z,7.60
2023-04-12T02:51:38.535Z,8.53
2023-04-12T02:54:06.114Z,7.37
2023-04-12T02:56:36.179Z,7.50
2023-04-12T02:59:03.181Z,7.20
2023-04-12T03:01:30.242Z,7.50
2023-04-12T03:03:57.498Z,8.17
2023-04-12T03:06:24.617Z,7.73
2023-04-12T03:08:51.485Z,7.87
2023-04-12T03:11:18.488Z,7.13
2023-04-12T03:13:45.513Z,7.47
2023-04-12T03:16:23.749Z,7.60
2023-04-12T03:18:51.685Z,8.00
2023-04-12T03:21:19.251Z,8.07
2023-04-12T03:23:46.401Z,8.23
2023-04-12T03:26:13.732Z,8.63
2023-04-12T03:28:41.615Z,8.87
2023-04-12T03:31:09.253Z,8.63
2023-04-12T03:33:36.205Z,9.30
2023-04-12T03:36:03.268Z,8.60
2023-04-12T03:38:30.504Z,10.10
2023-04-12T03:40:57.485Z,9.07
2023-04-12T03:43:24.369Z,8.93
2023-04-12T03:45:51.508Z,8.60
2023-04-12T03:48:18.517Z,10.37
2023-04-12T03:50:45.373Z,9.60
2023-04-12T03:53:12.513Z,9.60
2023-04-12T03:55:39.482Z,9.27
2023-04-12T03:58:06.589Z,11.13
2023-04-12T04:00:33.764Z,10.30
2023-04-12T04:03:03.465Z,10.00
2023-04-12T04:05:31.347Z,9.37
2023-04-12T04:08:02.791Z,10.20
2023-04-12T04:10:29.932Z,10.37
2023-04-12T04:12:56.793Z,10.67
2023-04-12T04:15:26.036Z,8.77
2023-04-12T04:17:53.238Z,10.23
2023-04-12T04:20:20.539Z,10.07
2023-04-12T04:22:53.380Z,9.07
2023-04-12T04:25:20.318Z,9.87
2023-04-12T04:27:47.367Z,9.93
2023-04-12T04:30:15.626Z,9.33
2023-04-12T04:32:43.320Z,9.17
2023-04-12T04:35:10.306Z,11.30
2023-04-12T04:37:37.316Z,10.33
2023-04-12T04:40:08.605Z,10.20
2023-04-12T04:42:36.600Z,9.93
2023-04-12T04:45:04.933Z,11.83
2023-04-12T04:47:31.962Z,10.43
2023-04-12T04:50:00.483Z,9.80
2023-04-12T04:52:27.591Z,10.53
2023-04-12T04:54:57.735Z,10.23
2023-04-12T04:57:26.751Z,10.60
2023-04-12T04:59:53.834Z,9.83
2023-04-12T05:02:21.441Z,9.93
2023-04-12T05:04:48.510Z,10.97
2023-04-12T05:07:15.611Z,10.23
2023-04-12T05:09:42.520Z,9.77
2023-04-12T05:12:09.476Z,10.40
2023-04-12T05:14:47.227Z,10.00
2023-04-12T05:17:16.733Z,9.93
2023-04-12T05:19:45.001Z,10.33
2023-04-12T05:22:13.048Z,9.90
2023-04-12T05:24:40.039Z,9.73
2023-04-12T05:27:07.135Z,12.17
2023-04-12T05:29:34.010Z,10.37
2023-04-12T05:32:01.165Z,9.90
2023-04-12T05:34:28.230Z,10.43
2023-04-12T05:36:55.418Z,10.13
2023-04-12T05:39:22.507Z,11.43
2023-04-12T05:41:49.580Z,10.97
2023-04-12T05:44:16.512Z,11.23
2023-04-12T05:46:43.568Z,10.50
2023-04-12T05:49:10.980Z,9.87
2023-04-12T05:51:41.403Z,10.60
2023-04-12T05:54:09.294Z,9.87
2023-04-12T05:56:36.305Z,9.50
2023-04-12T05:59:03.197Z,11.63
2023-04-12T06:01:33.441Z,9.07
2023-04-12T06:04:02.735Z,10.33
2023-04-12T06:06:30.499Z,8.40
2023-04-12T06:09:00.721Z,9.53
2023-04-12T06:11:27.852Z,9.10
2023-04-12T06:13:55.529Z,9.77
2023-04-12T06:16:22.526Z,10.30
2023-04-12T06:18:49.594Z,9.20
2023-04-12T06:21:16.607Z,9.20
2023-04-12T06:23:43.613Z,8.83
2023-04-12T06:26:10.745Z,9.07
2023-04-12T06:28:37.835Z,9.10
2023-04-12T06:31:05.085Z,9.33
2023-04-12T06:33:33.975Z,8.93
2023-04-12T06:36:01.148Z,8.87
2023-04-12T06:38:28.197Z,7.20
2023-04-12T06:40:55.410Z,8.00
2023-04-12T06:43:22.879Z,8.37
2023-04-12T06:45:50.287Z,8.70
2023-04-12T06:48:17.441Z,9.40
2023-04-12T06:50:45.487Z,8.27
2023-04-12T06:53:15.751Z,8.20
2023-04-12T06:55:42.801Z,7.50
2023-04-12T06:58:10.287Z,8.20
2023-04-12T07:00:38.161Z,9.67
2023-04-12T07:03:05.338Z,8.00
2023-04-12T07:05:39.105Z,9.90
2023-04-12T07:08:07.916Z,8.97
2023-04-12T07:10:36.203Z,9.10
2023-04-12T07:13:07.141Z,9.00
2023-04-12T07:15:34.495Z,8.47
2023-04-12T07:18:01.448Z,7.97
2023-04-12T07:20:28.486Z,8.50
2023-04-12T07:22:55.556Z,8.73
2023-04-12T07:25:22.650Z,8.70
2023-04-12T07:27:51.706Z,9.60
2023-04-12T07:30:19.088Z,7.80
2023-04-12T07:32:46.327Z,8.57
2023-04-12T07:35:13.327Z,8.47
2023-04-12T07:37:40.683Z,9.00
2023-04-12T07:40:08.124Z,10.60
2023-04-12T07:42:35.041Z,8.03
2023-04-12T07:45:04.312Z,9.03
2023-04-12T07:47:31.263Z,8.73
2023-04-12T07:49:58.957Z,10.27
2023-04-12T07:52:26.042Z,8.10
2023-04-12T07:54:52.976Z,7.50
2023-04-12T07:57:20.005Z,8.17
2023-04-12T07:59:47.075Z,8.53
2023-04-12T08:02:14.173Z,8.20
2023-04-12T08:04:44.412Z,9.40
2023-04-12T08:07:12.732Z,11.80
2023-04-12T08:09:39.659Z,8.33
2023-04-12T08:12:07.217Z,9.93
2023-04-12T08:14:34.118Z,8.80
2023-04-12T08:17:01.387Z,9.07
2023-04-12T08:19:28.470Z,10.43
2023-04-12T08:21:59.596Z,6.90
2023-04-12T08:24:26.504Z,7.90
2023-04-12T08:26:53.495Z,8.53
2023-04-12T08:29:23.730Z,8.50
2023-04-12T08:31:52.629Z,8.07
2023-04-12T08:34:20.527Z,9.33
2023-04-12T08:36:47.624Z,9.03
2023-04-12T08:39:14.540Z,8.53
2023-04-12T08:41:42.207Z,9.23
2023-04-12T08:44:11.698Z,7.67
2023-04-12T08:46:38.753Z,8.30
2023-04-12T08:49:05.861Z,8.87
2023-04-12T08:51:34.002Z,7.50
2023-04-12T08:54:00.988Z,7.23
2023-04-12T08:56:29.134Z,8.13
2023-04-12T08:58:56.934Z,9.77
2023-04-12T09:01:25.417Z,8.80
2023-04-12T09:03:52.630Z,8.90
2023-04-12T09:06:19.875Z,8.87
2023-04-12T09:08:54.706Z,10.27
2023-04-12T09:11:24.513Z,9.17
2023-04-12T09:13:51.772Z,9.37
2023-04-12T09:16:33.400Z,8.13
2023-04-12T09:19:02.585Z,9.77
2023-04-12T09:21:30.231Z,9.00
2023-04-12T09:24:04.590Z,6.97
2023-04-12T09:26:31.688Z,8.13
2023-04-12T09:28:58.654Z,6.80
2023-04-12T09:31:26.968Z,7.03
2023-04-12T09:34:09.369Z,8.23
2023-04-12T09:36:40.352Z,8.23
2023-04-12T09:39:08.054Z,7.47
2023-04-12T09:41:35.048Z,8.07
2023-04-12T09:44:02.399Z,7.37
2023-04-12T09:46:29.525Z,8.63
2023-04-12T09:49:03.434Z,7.03
2023-04-12T09:51:36.478Z,7.87
2023-04-12T09:54:06.193Z,7.27
2023-04-12T09:56:39.907Z,8.73
2023-04-12T09:59:08.043Z,7.30
2023-04-12T10:01:37.053Z,8.00
2023-04-12T10:04:07.468Z,9.30
2023-04-12T10:06:35.193Z,8.70
2023-04-12T10:09:06.716Z,9.40
2023-04-12T10:11:34.310Z,9.47
2023-04-12T10:14:03.416Z,8.43
2023-04-12T10:16:33.520Z,8.80
2023-04-12T10:19:03.883Z,9.53
2023-04-12T10:21:31.776Z,9.43
2023-04-12T10:23:59.105Z,9.33
2023-04-12T10:26:26.377Z,7.87
2023-04-12T10:29:28.956Z,7.30
2023-04-12T10:31:58.225Z,8.20
2023-04-12T10:34:29.732Z,8.77
2023-04-12T10:36:58.951Z,7.93
2023-04-12T10:39:41.192Z,8.23
2023-04-12T10:42:18.776Z,9.47
2023-04-12T10:44:46.301Z,8.77
2023-04-12T10:47:13.374Z,8.03
2023-04-12T10:49:40.552Z,9.33
2023-04-12T10:52:09.439Z,9.23
2023-04-12T10:54:37.009Z,7.93
2023-04-12T10:57:04.753Z,7.47
2023-04-12T10:59:51.235Z,8.53
2023-04-12T11:02:18.530Z,6.87
2023-04-12T11:05:10.358Z,6.40
2023-04-12T11:07:42.560Z,7.47
2023-04-12T11:10:17.567Z,6.40
2023-04-12T11:12:55.361Z,9.93
2023-04-12T11:15:31.828Z,6.20
2023-04-12T11:18:00.962Z,7.97
2023-04-12T11:20:28.267Z,8.27
2023-04-12T11:22:55.810Z,7.80
2023-04-12T11:25:23.146Z,8.30
2023-04-12T11:27:54.933Z,7.57
2023-04-12T11:30:23.665Z,11.33
2023-04-12T11:32:50.827Z,7.00
2023-04-12T11:35:20.435Z,6.23
2023-04-12T11:37:47.914Z,7.97
2023-04-12T11:40:14.946Z,8.53
2023-04-12T11:42:42.093Z,9.17
2023-04-12T11:45:15.911Z,9.70
2023-04-12T11:47:47.043Z,8.67
2023-04-12T11:50:27.545Z,7.43
2023-04-12T11:52:54.820Z,10.27
2023-04-12T11:55:22.033Z,7.40
2023-04-12T11:57:56.048Z,8.37
2023-04-12T12:00:27.702Z,6.90
2023-04-12T12:03:06.844Z,8.50
2023-04-12T12:05:37.863Z,8.93
2023-04-12T12:08:07.732Z,8.63
2023-04-12T12:10:55.519Z,6.80
2023-04-12T12:13:26.832Z,8.20
2023-04-12T12:15:54.101Z,9.97
2023-04-12T12:18:27.496Z,8.37
2023-04-12T12:20:58.059Z,6.90
2023-04-12T12:23:32.466Z,7.30
2023-04-12T12:26:16.865Z,8.50
2023-04-12T12:28:50.813Z,7.30
2023-04-12T12:31:21.573Z,7.57
2023-04-12T12:33:49.780Z,8.90
2023-04-12T12:36:22.969Z,7.57
2023-04-12T12:38:56.848Z,8.73
2023-04-12T12:41:25.100Z,7.20
2023-04-12T12:43:53.253Z,10.80
2023-04-12T12:46:20.926Z,8.20
2023-04-12T12:48:49.042Z,6.83
2023-04-12T12:51:22.671Z,8.47
2023-04-12T12:53:49.990Z,8.23
2023-04-12T12:56:17.203Z,7.73
2023-04-12T12:58:44.232Z,8.37
2023-04-12T13:01:11.521Z,8.70
2023-04-12T13:03:38.556Z,9.17
2023-04-12T13:06:06.046Z,8.07
2023-04-12T13:08:35.426Z,7.87
2023-04-12T13:11:02.413Z,7.67
2023-04-12T13:13:29.415Z,7.30
2023-04-12T13:15:56.461Z,6.70
2023-04-12T13:18:23.482Z,7.53
2023-04-12T13:20:50.430Z,13.07
2023-04-12T13:23:17.447Z,8.27
2023-04-12T13:25:44.475Z,7.87
2023-04-12T13:28:12.854Z,6.70
2023-04-12T13:30:40.434Z,4.83
2023-04-12T13:33:07.411Z,5.53
2023-04-12T13:35:34.595Z,7.97
2023-04-12T13:38:01.646Z,7.00
2023-04-12T13:40:28.606Z,6.90
2023-04-12T13:42:55.592Z,7.50
2023-04-12T13:45:22.890Z,7.67
2023-04-12T13:47:49.944Z,7.90
2023-04-12T13:50:16.926Z,6.97
2023-04-12T13:52:43.950Z,7.37
2023-04-12T13:55:11.261Z,6.83
2023-04-12T13:57:38.256Z,7.27
2023-04-12T14:00:06.167Z,8.83
2023-04-12T14:02:33.195Z,8.23
2023-04-12T14:05:00.736Z,7.33
2023-04-12T14:07:29.548Z,6.50
2023-04-12T14:09:57.901Z,7.33
2023-04-12T14:12:24.929Z,7.93
2023-04-12T14:14:52.095Z,6.53
2023-04-12T14:17:19.206Z,7.83
2023-04-12T14:19:46.397Z,8.47
2023-04-12T14:22:13.313Z,8.33
2023-04-12T14:24:42.690Z,6.27
2023-04-12T14:27:09.603Z,7.37
2023-04-12T14:29:37.421Z,8.10
2023-04-12T14:32:04.369Z,8.93
2023-04-12T14:34:31.404Z,10.20
2023-04-12T14:36:58.392Z,8.97
2023-04-12T14:39:26.287Z,10.90
2023-04-12T14:41:53.228Z,8.47
2023-04-12T14:44:21.406Z,10.20
2023-04-12T14:46:49.585Z,10.83
2023-04-12T14:49:16.789Z,8.70
2023-04-12T14:51:44.134Z,8.20
2023-04-12T14:54:11.071Z,10.00
2023-04-12T14:56:46.803Z,10.13
2023-04-12T14:59:18.380Z,9.70
2023-04-12T15:01:48.028Z,9.60
2023-04-12T15:04:15.316Z,10.67
2023-04-12T15:06:43.060Z,9.40
2023-04-12T15:09:10.474Z,7.63
2023-04-12T15:11:38.437Z,10.07
2023-04-12T15:14:07.399Z,9.47
2023-04-12T15:16:35.482Z,9.87
2023-04-12T15:19:08.028Z,9.07
2023-04-12T15:21:38.293Z,9.87
2023-04-12T15:24:05.477Z,8.70
2023-04-12T15:26:33.850Z,10.70
2023-04-12T15:29:00.908Z,9.40
2023-04-12T15:31:28.525Z,8.70
2023-04-12T15:33:57.934Z,8.93
2023-04-12T15:36:33.637Z,9.47
2023-04-12T15:39:01.532Z,10.03
2023-04-12T15:41:34.947Z,17.03
2023-04-12T15:44:01.929Z,11.27
2023-04-12T15:46:29.206Z,9.53
2023-04-12T15:49:00.297Z,10.83
2023-04-12T15:51:30.592Z,9.47
2023-04-12T15:53:57.848Z,10.87
2023-04-12T15:56:25.520Z,8.83
2023-04-12T15:58:53.520Z,9.77
2023-04-12T16:01:20.882Z,10.73
2023-04-12T16:03:49.374Z,9.33
2023-04-12T16:06:21.629Z,9.87
2023-04-12T16:08:53.478Z,10.07
2023-04-12T16:11:23.963Z,9.40
2023-04-12T16:13:54.049Z,10.03
2023-04-12T16:16:24.562Z,8.90
2023-04-12T16:18:55.763Z,10.70
2023-04-12T16:21:23.479Z,9.83
2023-04-12T16:23:51.249Z,8.30
2023-04-12T16:26:24.272Z,9.53
2023-04-12T16:28:53.483Z,8.60
2023-04-12T16:31:21.223Z,10.43
2023-04-12T16:33:51.872Z,9.40
2023-04-12T16:36:19.269Z,8.80
2023-04-12T16:38:46.330Z,10.13
2023-04-12T16:41:13.341Z,9.67
2023-04-12T16:43:41.505Z,9.70
2023-04-12T16:46:10.694Z,9.93
2023-04-12T16:48:41.748Z,8.77
2023-04-12T16:51:09.192Z,9.90
2023-04-12T16:53:39.143Z,11.93
2023-04-12T16:56:06.610Z,10.57
2023-04-12T16:58:33.651Z,9.40
2023-04-12T17:01:00.968Z,9.13
2023-04-12T17:03:28.033Z,10.13
2023-04-12T17:05:55.034Z,10.37
2023-04-12T17:08:22.832Z,11.43
2023-04-12T17:10:49.827Z,8.30
2023-04-12T17:13:19.394Z,10.47
2023-04-12T17:15:49.962Z,10.67
2023-04-12T17:18:16.999Z,10.43
2023-04-12T17:20:44.306Z,9.57
2023-04-12T17:23:11.559Z,10.47
2023-04-12T17:25:39.553Z,10.50
2023-04-12T17:28:08.580Z,10.40
2023-04-12T17:30:35.577Z,9.63
2023-04-12T17:33:03.146Z,10.40
2023-04-12T17:35:30.266Z,9.90
2023-04-12T17:37:57.326Z,12.33
2023-04-12T17:40:24.286Z,9.93
2023-04-12T17:42:51.340Z,9.70
2023-04-12T17:45:21.830Z,10.80
2023-04-12T17:47:49.103Z,10.60
2023-04-12T17:50:16.146Z,9.47
2023-04-12T17:52:43.107Z,10.20
2023-04-12T17:55:10.702Z,11.53
2023-04-12T17:57:37.812Z,9.40
2023-04-12T18:00:11.960Z,9.97
2023-04-12T18:02:39.498Z,10.20
2023-04-12T18:05:10.185Z,8.97
2023-04-12T18:07:37.341Z,9.13
2023-04-12T18:10:05.429Z,10.27
2023-04-12T18:12:32.364Z,9.50
2023-04-12T18:15:02.534Z,9.70
2023-04-12T18:17:29.635Z,10.80
2023-04-12T18:19:56.570Z,9.43
2023-04-12T18:22:23.521Z,10.33
2023-04-12T18:24:50.708Z,9.37
2023-04-12T18:27:17.652Z,10.40
2023-04-12T18:29:44.901Z,9.83
2023-04-12T18:32:12.371Z,10.80
2023-04-12T18:34:39.286Z,9.93
2023-04-12T18:37:06.780Z,11.37
2023-04-12T18:39:35.700Z,8.60
2023-04-12T18:42:02.866Z,9.20
2023-04-12T18:44:34.590Z,8.40
2023-04-12T18:47:03.913Z,9.13
2023-04-12T18:49:31.329Z,10.30
2023-04-12T18:51:58.820Z,9.73
2023-04-12T18:54:27.850Z,9.60
2023-04-12T18:56:55.047Z,9.43
2023-04-12T18:59:22.410Z,9.40
2023-04-12T19:01:49.458Z,10.27
2023-04-12T19:04:16.799Z,10.10
2023-04-12T19:06:44.955Z,9.17
2023-04-12T19:09:12.094Z,8.90
2023-04-12T19:11:39.197Z,9.60
2023-04-12T19:14:07.442Z,10.10
2023-04-12T19:16:34.826Z,9.80
2023-04-12T19:19:01.877Z,9.70
2023-04-12T19:21:29.626Z,9.40
2023-04-12T19:23:56.950Z,9.70
2023-04-12T19:26:24.063Z,11.87
2023-04-12T19:28:55.643Z,10.07
2023-04-12T19:31:23.860Z,10.37
2023-04-12T19:33:50.960Z,9.13
2023-04-12T19:36:18.038Z,10.57
2023-04-12T19:38:47.865Z,9.77
2023-04-12T19:41:16.220Z,8.97
2023-04-12T19:43:43.322Z,10.17
2023-04-12T19:46:10.926Z,9.53
2023-04-12T19:48:38.309Z,9.07
2023-04-12T19:51:05.596Z,9.43
2023-04-12T19:53:33.308Z,9.43
2023-04-12T19:56:00.911Z,8.97
2023-04-12T19:58:27.955Z,9.40
2023-04-12T20:00:55.805Z,9.17
2023-04-12T20:03:23.480Z,8.70
2023-04-12T20:05:51.131Z,9.53
2023-04-12T20:08:18.224Z,8.47
2023-04-12T20:10:45.217Z,9.83
2023-04-12T20:13:15.377Z,9.20
2023-04-12T20:15:43.306Z,9.90
2023-04-12T20:18:13.593Z,8.90
2023-04-12T20:20:45.283Z,8.83
2023-04-12T20:23:13.774Z,9.10
2023-04-12T20:25:41.905Z,9.47
2023-04-12T20:28:09.558Z,9.70
2023-04-12T20:30:37.040Z,9.07
2023-04-12T20:33:04.833Z,9.40
2023-04-12T20:35:42.314Z,8.80
2023-04-12T20:38:09.652Z,8.63
2023-04-12T20:40:36.604Z,8.60
2023-04-12T20:43:04.991Z,9.20
2023-04-12T20:45:32.634Z,8.60
2023-04-12T20:47:59.734Z,8.57
2023-04-12T20:50:26.916Z,9.17
2023-04-12T20:52:54.939Z,8.60
2023-04-12T20:55:34.114Z,8.23
2023-04-12T20:58:04.005Z,7.83
2023-04-12T21:00:32.721Z,8.03
2023-04-12T21:03:02.865Z,7.83
2023-04-12T21:05:33.863Z,8.50
2023-04-12T21:08:00.875Z,7.97
2023-04-12T21:10:28.305Z,8.37
2023-04-12T21:12:55.662Z,8.13
2023-04-12T21:15:22.611Z,8.43
2023-04-12T21:17:52.304Z,8.73
2023-04-12T21:20:19.759Z,9.10
2023-04-12T21:22:47.988Z,8.50
2023-04-12T21:25:17.071Z,8.93
2023-04-12T21:27:46.062Z,9.10
2023-04-12T21:30:14.130Z,8.33
2023-04-12T21:32:42.917Z,9.27
2023-04-12T21:35:11.309Z,9.20
2023-04-12T21:37:39.369Z,8.37
2023-04-12T21:40:09.804Z,8.13
2023-04-12T21:42:37.716Z,8.73
2023-04-12T21:45:05.839Z,8.20
2023-04-12T21:47:33.153Z,8.60
2023-04-12T21:50:00.579Z,8.50
2023-04-12T21:52:27.576Z,8.63
2023-04-12T21:54:55.720Z,7.83
2023-04-12T21:57:22.742Z,7.90
2023-04-12T21:59:49.770Z,7.93
2023-04-12T22:02:16.814Z,7.70
2023-04-12T22:04:46.117Z,8.10
2023-04-12T22:07:14.098Z,7.47
2023-04-12T22:09:41.597Z,7.57
2023-04-12T22:12:09.086Z,5.90
2023-04-12T22:14:36.807Z,7.73
2023-04-12T22:17:04.467Z,7.63
2023-04-12T22:19:31.572Z,8.13
2023-04-12T22:21:58.626Z,8.33
2023-04-12T22:24:26.338Z,7.37
2023-04-12T22:26:57.525Z,8.07
2023-04-12T22:29:25.458Z,8.03
2023-04-12T22:31:52.840Z,8.13
2023-04-12T22:34:19.798Z,8.80
2023-04-12T22:36:51.622Z,8.70
2023-04-12T22:39:21.808Z,8.13
2023-04-12T22:41:49.790Z,8.87
2023-04-12T22:44:18.397Z,8.90
2023-04-12T22:46:49.054Z,8.07
2023-04-12T22:49:17.416Z,7.77
2023-04-12T22:51:45.150Z,7.37
2023-04-12T22:54:12.540Z,7.20
2023-04-12T22:56:45.333Z,8.23
2023-04-12T22:59:16.678Z,7.67
2023-04-12T23:01:45.834Z,8.20
2023-04-12T23:04:17.033Z,8.40
2023-04-12T23:06:44.785Z,8.20
2023-04-12T23:09:12.731Z,8.70
2023-04-12T23:11:40.924Z,7.07
2023-04-12T23:14:08.843Z,7.87
2023-04-12T23:16:42.334Z,8.97
2023-04-12T23:19:09.499Z,7.73
2023-04-12T23:21:37.177Z,8.43
2023-04-12T23:24:05.231Z,7.63
2023-04-12T23:26:34.458Z,8.13
2023-04-12T23:29:04.409Z,8.07
2023-04-12T23:31:32.434Z,8.40
2023-04-12T23:34:03.931Z,8.40
2023-04-12T23:36:31.009Z,8.20
2023-04-12T23:39:00.190Z,7.67
2023-04-12T23:41:32.085Z,8.63
2023-04-12T23:44:00.295Z,8.97
2023-04-12T23:46:27.972Z,8.40
2023-04-12T23:48:55.213Z,7.43
2023-04-12T23:51:22.778Z,8.13
2023-04-12T23:53:50.284Z,7.93
2023-04-12T23:56:17.392Z,8.30
2023-04-12T23:58:44.673Z,7.47
